Weather at Kopaida Moschonis Airfield [CLOSED]

Public forecast

Using degrees Celsius for public forecast. Weather courtesy of forecast.io.

Closest aviation weather report (METAR) to Kopaida Moschonis Airfield

Closest report is Tanagra Air Base, 21.0 nm (38.9 km) ESE. Retrieved 2021/04/12 20:50 UTC (25 minutes ago):

LGTG 122050Z 00000KT CAVOK 08/05 Q1020 BLU

Closest aviation forecast (TAF) to Kopaida Moschonis Airfield

Closest forecast is Elefsis Airport, 29.7 nm (55.0 km) SE. Retrieved 2021/04/12 18:00 UTC (3 hours ago):

TAF LGEL 121700Z 1218/1318 VRB05KT 9999 FEW020 TEMPO 1220/1304 34005KT BECMG 1304/1306 18010KT